createdAt,value
2018-11-13T00:00:29.216Z,100.00
2018-11-13T00:02:59.145Z,100.00
2018-11-13T00:05:28.909Z,100.00
2018-11-13T00:07:58.993Z,100.00
2018-11-13T00:10:29.074Z,100.00
2018-11-13T00:12:58.867Z,100.00
2018-11-13T00:15:28.659Z,100.00
2018-11-13T00:17:58.500Z,100.00
2018-11-13T00:20:28.578Z,100.00
2018-11-13T00:22:58.272Z,100.00
2018-11-13T00:25:27.920Z,100.00
2018-11-13T00:27:57.572Z,100.00
2018-11-13T00:30:27.307Z,100.00
2018-11-13T00:32:56.806Z,100.00
2018-11-13T00:35:26.496Z,100.00
2018-11-13T00:37:56.157Z,100.00
2018-11-13T00:40:25.955Z,100.00
2018-11-13T00:42:55.755Z,100.00
2018-11-13T00:45:25.339Z,100.00
2018-11-13T00:47:54.986Z,100.00
2018-11-13T00:50:24.474Z,100.00
2018-11-13T00:52:54.392Z,100.00
2018-11-13T00:55:24.167Z,100.00
2018-11-13T00:57:54.409Z,100.00
2018-11-13T01:00:24.029Z,100.00
2018-11-13T01:02:53.716Z,100.00
2018-11-13T01:05:23.665Z,100.00
2018-11-13T01:07:53.327Z,100.00
2018-11-13T01:10:23.179Z,100.00
2018-11-13T01:12:52.787Z,100.00
2018-11-13T01:15:22.520Z,100.00
2018-11-13T01:17:52.324Z,100.00
2018-11-13T01:20:22.723Z,100.00
2018-11-13T01:22:52.167Z,100.00
2018-11-13T01:25:22.180Z,100.00
2018-11-13T01:27:52.360Z,100.00
2018-11-13T01:30:21.923Z,100.00
2018-11-13T01:32:51.634Z,100.00
2018-11-13T01:35:21.218Z,100.00
2018-11-13T01:37:51.871Z,100.00
2018-11-13T01:40:22.293Z,100.00
2018-11-13T01:42:52.218Z,100.00
2018-11-13T01:45:21.805Z,100.00
2018-11-13T01:47:51.238Z,100.00
2018-11-13T01:50:20.873Z,100.00
2018-11-13T01:52:50.358Z,100.00
2018-11-13T01:55:20.312Z,100.00
2018-11-13T01:57:49.954Z,100.00
2018-11-13T02:00:23.777Z,100.00
2018-11-13T02:02:54.627Z,100.00
2018-11-13T02:05:25.529Z,100.00
2018-11-13T02:07:55.851Z,100.00
2018-11-13T02:10:25.744Z,100.00
2018-11-13T02:12:55.435Z,100.00
2018-11-13T02:15:25.042Z,100.00
2018-11-13T02:17:54.798Z,100.00
2018-11-13T02:20:24.593Z,100.00
2018-11-13T02:22:54.409Z,100.00
2018-11-13T02:25:24.055Z,100.00
2018-11-13T02:27:54.044Z,100.00
2018-11-13T02:30:24.226Z,100.00
2018-11-13T02:32:53.831Z,100.00
2018-11-13T02:35:23.562Z,100.00
2018-11-13T02:37:53.419Z,100.00
2018-11-13T02:40:23.288Z,100.00
2018-11-13T02:42:52.789Z,100.00
2018-11-13T02:45:22.084Z,100.00
2018-11-13T02:47:51.589Z,100.00
2018-11-13T02:50:21.967Z,100.00
2018-11-13T02:52:51.773Z,100.00
2018-11-13T02:55:21.751Z,100.00
2018-11-13T02:57:51.480Z,100.00
2018-11-13T03:00:22.318Z,100.00
2018-11-13T03:02:52.200Z,100.00
2018-11-13T03:05:22.615Z,100.00
2018-11-13T03:07:52.229Z,100.00
2018-11-13T03:10:21.987Z,100.00
2018-11-13T03:12:51.860Z,100.00
2018-11-13T03:15:21.972Z,100.00
2018-11-13T03:17:51.647Z,100.00
2018-11-13T03:20:21.657Z,100.00
2018-11-13T03:22:51.346Z,100.00
2018-11-13T03:25:22.421Z,100.00
2018-11-13T03:27:52.452Z,100.00
2018-11-13T03:30:24.259Z,100.00
2018-11-13T03:32:54.432Z,100.00
2018-11-13T03:35:24.071Z,100.00
2018-11-13T03:37:53.812Z,100.00
2018-11-13T03:40:23.371Z,100.00
2018-11-13T03:42:52.864Z,100.00
2018-11-13T03:45:22.633Z,100.00
2018-11-13T03:47:52.186Z,100.00
2018-11-13T03:50:22.821Z,100.00
2018-11-13T03:52:52.580Z,100.00
2018-11-13T03:55:22.348Z,100.00
2018-11-13T03:57:52.342Z,100.00
2018-11-13T04:00:23.181Z,100.00
2018-11-13T04:02:53.060Z,100.00
2018-11-13T04:05:22.867Z,100.00
2018-11-13T04:07:54.672Z,100.00
2018-11-13T04:10:25.160Z,100.00
2018-11-13T04:12:54.636Z,100.00
2018-11-13T04:15:25.423Z,100.00
2018-11-13T04:17:55.259Z,100.00
2018-11-13T04:20:25.133Z,100.00
2018-11-13T04:22:54.733Z,100.00
2018-11-13T04:25:24.609Z,100.00
2018-11-13T04:27:54.234Z,100.00
2018-11-13T04:30:24.227Z,100.00
2018-11-13T04:32:54.006Z,100.00
2018-11-13T04:35:23.569Z,100.00
2018-11-13T04:37:53.576Z,100.00
2018-11-13T04:40:23.283Z,100.00
2018-11-13T04:42:53.894Z,100.00
2018-11-13T04:45:24.921Z,100.00
2018-11-13T04:47:55.884Z,100.00
2018-11-13T04:50:25.556Z,100.00
2018-11-13T04:52:55.257Z,100.00
2018-11-13T04:55:24.863Z,100.00
2018-11-13T04:57:54.431Z,100.00
2018-11-13T05:00:24.878Z,100.00
2018-11-13T05:02:54.845Z,100.00
2018-11-13T05:05:24.557Z,100.00
2018-11-13T05:07:55.181Z,100.00
2018-11-13T05:10:25.641Z,100.00
2018-11-13T05:12:55.421Z,100.00
2018-11-13T05:15:25.014Z,100.00
2018-11-13T05:17:54.874Z,100.00
2018-11-13T05:20:24.589Z,100.00
2018-11-13T05:22:54.979Z,100.00
2018-11-13T05:25:25.032Z,100.00
2018-11-13T05:27:54.680Z,100.00
2018-11-13T05:30:24.539Z,100.00
2018-11-13T05:32:54.664Z,100.00
2018-11-13T05:35:24.860Z,100.00
2018-11-13T05:37:54.718Z,100.00
2018-11-13T05:40:25.406Z,100.00
2018-11-13T05:42:57.260Z,100.00
2018-11-13T05:45:28.189Z,100.00
2018-11-13T05:47:59.469Z,100.00
2018-11-13T05:50:28.981Z,100.00
2018-11-13T05:52:58.329Z,100.00
2018-11-13T05:55:27.512Z,100.00
2018-11-13T05:57:57.405Z,100.00
2018-11-13T06:00:30.959Z,100.00
2018-11-13T06:03:00.881Z,100.00
2018-11-13T06:05:30.610Z,100.00
2018-11-13T06:08:00.245Z,100.00
2018-11-13T06:10:29.593Z,100.00
2018-11-13T06:12:59.069Z,100.00
2018-11-13T06:15:28.716Z,100.00
2018-11-13T06:17:59.028Z,100.00
2018-11-13T06:20:28.714Z,100.00
2018-11-13T06:22:58.416Z,100.00
2018-11-13T06:25:27.901Z,100.00
2018-11-13T06:27:57.540Z,100.00
2018-11-13T06:30:28.176Z,100.00
2018-11-13T06:32:58.489Z,100.00
2018-11-13T06:35:28.112Z,100.00
2018-11-13T06:40:34.657Z,100.00
2018-11-13T06:43:04.572Z,100.00
2018-11-13T06:45:35.300Z,100.00
2018-11-13T06:48:04.667Z,100.00
2018-11-13T06:50:34.104Z,100.00
2018-11-13T06:53:03.711Z,100.00
2018-11-13T06:55:35.475Z,100.00
2018-11-13T06:58:05.185Z,100.00
2018-11-13T07:00:35.425Z,100.00
2018-11-13T07:03:05.204Z,100.00
2018-11-13T07:05:39.808Z,100.00
2018-11-13T07:08:08.937Z,100.00
2018-11-13T07:10:38.123Z,100.00
2018-11-13T07:13:07.409Z,98.60
2018-11-13T07:15:36.832Z,99.67
2018-11-13T07:18:06.190Z,100.00
2018-11-13T07:20:35.964Z,98.03
2018-11-13T07:23:05.067Z,97.22
2018-11-13T07:25:34.429Z,100.00
2018-11-13T07:28:04.586Z,96.58
2018-11-13T07:30:34.686Z,91.79
2018-11-13T07:33:04.888Z,93.63
2018-11-13T07:35:35.753Z,91.54
2018-11-13T07:38:04.889Z,99.55
2018-11-13T07:40:36.176Z,100.00
2018-11-13T07:43:06.157Z,92.15
2018-11-13T07:45:36.792Z,91.36
2018-11-13T07:48:11.492Z,92.03
2018-11-13T07:50:41.872Z,87.62
2018-11-13T07:53:11.369Z,91.83
2018-11-13T07:55:43.360Z,88.70
2018-11-13T07:58:13.758Z,86.68
2018-11-13T08:00:42.894Z,86.76
2018-11-13T08:03:29.266Z,83.20
2018-11-13T08:05:58.424Z,82.61
2018-11-13T08:08:27.569Z,86.05
2018-11-13T08:10:56.698Z,80.75
2018-11-13T08:13:26.127Z,85.56
2018-11-13T08:15:55.239Z,85.82
2018-11-13T08:18:24.689Z,83.08
2018-11-13T08:20:54.258Z,78.69
2018-11-13T08:23:23.618Z,74.74
2018-11-13T08:25:55.545Z,75.39
2018-11-13T08:28:24.839Z,74.25
2018-11-13T08:30:54.123Z,78.92
2018-11-13T08:33:23.244Z,77.21
2018-11-13T08:35:52.484Z,80.71
2018-11-13T08:38:21.582Z,85.16
2018-11-13T08:40:50.683Z,79.52
2018-11-13T08:43:19.926Z,85.27
2018-11-13T08:45:49.088Z,79.58
2018-11-13T08:48:18.248Z,80.17
2018-11-13T08:50:48.034Z,78.68
2018-11-13T08:53:17.745Z,81.08
2018-11-13T08:55:48.034Z,75.82
2018-11-13T08:58:18.319Z,67.52
2018-11-13T09:00:49.722Z,69.38
2018-11-13T09:03:19.610Z,75.53
2018-11-13T09:05:48.970Z,75.72
2018-11-13T09:08:18.311Z,71.58
2018-11-13T09:10:48.210Z,72.89
2018-11-13T09:13:17.707Z,66.77
2018-11-13T09:15:47.113Z,65.24
2018-11-13T09:18:17.032Z,62.37
2018-11-13T09:20:50.781Z,64.93
2018-11-13T09:23:22.203Z,67.37
2018-11-13T09:26:05.009Z,63.09
2018-11-13T09:28:39.871Z,62.19
2018-11-13T09:31:12.698Z,64.11
2018-11-13T09:33:43.967Z,64.43
2018-11-13T09:36:19.641Z,65.11
2018-11-13T09:38:51.733Z,66.66
2018-11-13T09:41:22.311Z,75.63
2018-11-13T09:44:05.933Z,76.83
2018-11-13T09:46:41.761Z,72.51
2018-11-13T09:49:14.126Z,67.79
2018-11-13T09:51:46.102Z,73.83
2018-11-13T09:54:19.927Z,71.47
2018-11-13T09:56:53.540Z,75.26
2018-11-13T09:59:34.335Z,77.53
2018-11-13T10:02:11.860Z,81.42
2018-11-13T10:04:48.143Z,73.15
2018-11-13T10:07:20.682Z,75.99
2018-11-13T10:09:55.487Z,66.55
2018-11-13T10:12:30.368Z,68.68
2018-11-13T10:15:03.311Z,66.24
2018-11-13T10:17:40.551Z,65.65
2018-11-13T10:20:14.784Z,65.98
2018-11-13T10:22:48.664Z,63.72
2018-11-13T10:25:22.448Z,64.82
2018-11-13T10:27:55.082Z,70.01
2018-11-13T10:30:25.418Z,69.63
2018-11-13T10:32:56.226Z,70.57
2018-11-13T10:35:28.729Z,65.08
2018-11-13T10:37:59.818Z,69.21
2018-11-13T10:40:30.976Z,65.47
2018-11-13T10:43:00.691Z,62.63
2018-11-13T10:45:30.844Z,68.87
2018-11-13T10:48:02.010Z,66.97
2018-11-13T10:50:33.317Z,66.19
2018-11-13T10:53:08.778Z,73.16
2018-11-13T10:55:45.622Z,68.43
2018-11-13T10:58:21.313Z,71.56
2018-11-13T11:00:58.404Z,73.64
2018-11-13T11:03:33.683Z,76.55
2018-11-13T11:06:04.110Z,76.50
2018-11-13T11:08:38.554Z,79.12
2018-11-13T11:11:09.107Z,83.77
2018-11-13T11:13:40.758Z,81.63
2018-11-13T11:16:12.474Z,80.31
2018-11-13T11:18:51.191Z,84.33
2018-11-13T11:21:20.630Z,86.84
2018-11-13T11:23:50.107Z,93.40
2018-11-13T11:26:21.313Z,96.35
2018-11-13T11:28:57.163Z,100.00
2018-11-13T11:31:30.066Z,99.68
2018-11-13T11:34:02.671Z,100.00
2018-11-13T11:36:33.310Z,99.79
2018-11-13T11:39:03.265Z,93.06
2018-11-13T11:41:33.481Z,98.09
2018-11-13T11:44:06.314Z,91.99
2018-11-13T11:46:36.004Z,91.48
2018-11-13T11:49:05.481Z,96.06
2018-11-13T11:51:36.729Z,100.00
2018-11-13T11:54:06.665Z,100.00
2018-11-13T11:56:36.362Z,96.64
2018-11-13T11:59:06.962Z,100.00
2018-11-13T12:01:37.489Z,96.86
2018-11-13T12:04:07.147Z,98.46
2018-11-13T12:06:36.618Z,100.00
2018-11-13T12:09:10.269Z,96.57
2018-11-13T12:11:40.935Z,90.60
2018-11-13T12:14:12.609Z,91.77
2018-11-13T12:16:48.911Z,94.34
2018-11-13T12:19:20.095Z,98.19
2018-11-13T12:21:49.577Z,100.00
2018-11-13T12:24:20.053Z,100.00
2018-11-13T12:26:56.153Z,100.00
2018-11-13T12:29:26.997Z,97.30
2018-11-13T12:32:03.898Z,100.00
2018-11-13T12:34:33.276Z,100.00
2018-11-13T12:37:02.706Z,100.00
2018-11-13T12:39:31.777Z,100.00
2018-11-13T12:42:01.396Z,100.00
2018-11-13T12:44:31.085Z,100.00
2018-11-13T12:47:00.151Z,100.00
2018-11-13T12:49:30.639Z,100.00
2018-11-13T12:52:05.008Z,100.00
2018-11-13T12:54:34.471Z,100.00
2018-11-13T12:57:05.281Z,100.00
2018-11-13T12:59:47.244Z,98.96
2018-11-13T13:02:23.704Z,100.00
2018-11-13T13:04:53.537Z,100.00
2018-11-13T13:07:23.217Z,94.66
2018-11-13T13:09:53.800Z,100.00
2018-11-13T13:12:23.520Z,100.00
2018-11-13T13:14:55.838Z,100.00
2018-11-13T13:17:25.699Z,100.00
2018-11-13T13:19:55.856Z,100.00
2018-11-13T13:22:27.207Z,100.00
2018-11-13T13:24:56.793Z,100.00
2018-11-13T13:27:26.509Z,100.00
2018-11-13T13:29:57.169Z,100.00
2018-11-13T13:32:31.241Z,100.00
2018-11-13T13:35:04.296Z,100.00
2018-11-13T13:37:34.806Z,100.00
2018-11-13T13:40:10.380Z,100.00
2018-11-13T13:42:40.597Z,94.71
2018-11-13T13:45:11.295Z,87.07
2018-11-13T13:47:42.439Z,84.94
2018-11-13T13:50:15.165Z,84.46
2018-11-13T13:52:45.891Z,80.30
2018-11-13T13:55:23.235Z,81.59
2018-11-13T13:58:02.157Z,92.83
2018-11-13T14:00:42.752Z,92.77
2018-11-13T14:03:18.606Z,85.88
2018-11-13T14:05:53.418Z,84.60
2018-11-13T14:08:24.128Z,78.92
2018-11-13T14:10:55.430Z,85.01
2018-11-13T14:13:27.571Z,85.70
2018-11-13T14:15:59.143Z,84.02
2018-11-13T14:18:31.784Z,81.89
2018-11-13T14:21:02.496Z,80.64
2018-11-13T14:23:36.492Z,85.91
2018-11-13T14:26:06.795Z,84.66
2018-11-13T14:28:36.802Z,89.02
2018-11-13T14:31:07.020Z,87.38
2018-11-13T14:33:36.151Z,90.67
2018-11-13T14:36:05.596Z,93.11
2018-11-13T14:38:34.809Z,98.36
2018-11-13T14:41:03.894Z,100.00
2018-11-13T14:43:33.137Z,100.00
2018-11-13T14:46:02.626Z,100.00
2018-11-13T14:48:31.937Z,100.00
2018-11-13T14:51:01.326Z,100.00
2018-11-13T14:53:30.717Z,100.00
2018-11-13T14:56:00.167Z,100.00
2018-11-13T14:58:29.429Z,100.00
2018-11-13T15:00:58.709Z,100.00
2018-11-13T15:03:28.419Z,100.00
2018-11-13T15:05:57.734Z,100.00
2018-11-13T15:08:27.042Z,100.00
2018-11-13T15:10:56.758Z,100.00
2018-11-13T15:13:27.303Z,100.00
2018-11-13T15:15:56.604Z,100.00
2018-11-13T15:18:25.863Z,100.00
2018-11-13T15:20:54.955Z,100.00
2018-11-13T15:23:24.189Z,100.00
2018-11-13T15:25:53.464Z,100.00
2018-11-13T15:28:22.719Z,100.00
2018-11-13T15:30:51.978Z,100.00
2018-11-13T15:33:22.980Z,100.00
2018-11-13T15:35:52.290Z,100.00
2018-11-13T15:38:21.440Z,100.00
2018-11-13T15:40:50.665Z,100.00
2018-11-13T15:43:19.877Z,100.00
2018-11-13T15:45:49.280Z,100.00
2018-11-13T15:48:18.506Z,100.00
2018-11-13T15:50:47.658Z,100.00
2018-11-13T15:53:16.806Z,100.00
2018-11-13T15:55:46.016Z,100.00
2018-11-13T15:58:15.743Z,100.00
2018-11-13T16:00:44.883Z,100.00
2018-11-13T16:03:19.078Z,100.00
2018-11-13T16:05:51.798Z,100.00
2018-11-13T16:08:21.703Z,100.00
2018-11-13T16:10:51.022Z,100.00
2018-11-13T16:13:20.568Z,100.00
2018-11-13T16:15:49.804Z,100.00
2018-11-13T16:18:20.814Z,100.00
2018-11-13T16:20:50.161Z,100.00
2018-11-13T16:23:19.469Z,100.00
2018-11-13T16:25:49.705Z,100.00
2018-11-13T16:28:22.151Z,100.00
2018-11-13T16:30:51.518Z,100.00
2018-11-13T16:33:20.573Z,100.00
2018-11-13T16:35:49.792Z,100.00
2018-11-13T16:38:19.207Z,100.00
2018-11-13T16:40:48.346Z,100.00
2018-11-13T16:43:17.533Z,100.00
2018-11-13T16:45:46.570Z,100.00
2018-11-13T16:48:15.828Z,100.00
2018-11-13T16:50:45.463Z,100.00
2018-11-13T16:53:14.660Z,100.00
2018-11-13T16:55:48.733Z,100.00
2018-11-13T16:58:17.872Z,100.00
2018-11-13T17:00:47.155Z,100.00
2018-11-13T17:03:16.432Z,100.00
2018-11-13T17:05:45.600Z,100.00
2018-11-13T17:08:14.543Z,100.00
2018-11-13T17:10:44.682Z,100.00
2018-11-13T17:13:13.825Z,100.00
2018-11-13T17:15:43.069Z,100.00
2018-11-13T17:18:13.728Z,100.00
2018-11-13T17:20:42.376Z,100.00
2018-11-13T17:23:11.554Z,100.00
2018-11-13T17:25:40.872Z,100.00
2018-11-13T17:28:10.202Z,100.00
2018-11-13T17:30:39.580Z,100.00
2018-11-13T17:33:09.897Z,100.00
2018-11-13T17:35:39.015Z,100.00
2018-11-13T17:38:08.252Z,100.00
2018-11-13T17:40:38.491Z,100.00
2018-11-13T17:43:08.509Z,100.00
2018-11-13T17:45:39.826Z,100.00
2018-11-13T17:48:10.073Z,100.00
2018-11-13T17:50:40.708Z,100.00
2018-11-13T17:53:10.700Z,100.00
2018-11-13T17:55:40.503Z,100.00
2018-11-13T17:58:11.472Z,100.00
2018-11-13T18:00:41.911Z,100.00
2018-11-13T18:03:12.619Z,100.00
2018-11-13T18:05:42.223Z,100.00
2018-11-13T18:08:12.093Z,100.00
2018-11-13T18:10:42.662Z,100.00
2018-11-13T18:13:11.755Z,100.00
2018-11-13T18:15:41.156Z,100.00
2018-11-13T18:18:10.648Z,100.00
2018-11-13T18:20:40.744Z,100.00
2018-11-13T18:23:10.264Z,100.00
2018-11-13T18:25:39.525Z,100.00
2018-11-13T18:28:08.799Z,100.00
2018-11-13T18:30:39.652Z,100.00
2018-11-13T18:33:09.642Z,100.00
2018-11-13T18:35:40.021Z,100.00
2018-11-13T18:38:10.854Z,100.00
2018-11-13T18:40:39.975Z,100.00
2018-11-13T18:43:09.104Z,100.00
2018-11-13T18:45:39.727Z,100.00
2018-11-13T18:48:09.897Z,100.00
2018-11-13T18:50:41.443Z,100.00
2018-11-13T18:53:10.566Z,100.00
2018-11-13T18:55:39.627Z,100.00
2018-11-13T18:58:08.839Z,100.00
2018-11-13T19:00:42.285Z,100.00
2018-11-13T19:03:13.183Z,100.00
2018-11-13T19:05:42.370Z,100.00
2018-11-13T19:08:11.390Z,100.00
2018-11-13T19:10:45.037Z,100.00
2018-11-13T19:13:17.386Z,100.00
2018-11-13T19:15:53.943Z,100.00
2018-11-13T19:18:23.172Z,100.00
2018-11-13T19:20:52.269Z,100.00
2018-11-13T19:23:27.810Z,100.00
2018-11-13T19:25:57.108Z,100.00
2018-11-13T19:28:29.212Z,100.00
2018-11-13T19:30:59.528Z,100.00
2018-11-13T19:33:28.598Z,100.00
2018-11-13T19:35:58.004Z,100.00
2018-11-13T19:38:27.034Z,100.00
2018-11-13T19:40:58.271Z,100.00
2018-11-13T19:43:29.148Z,100.00
2018-11-13T19:46:00.772Z,100.00
2018-11-13T19:48:31.274Z,100.00
2018-11-13T19:51:01.078Z,100.00
2018-11-13T19:53:30.308Z,100.00
2018-11-13T19:56:00.323Z,100.00
2018-11-13T19:58:30.759Z,100.00
2018-11-13T20:01:00.353Z,100.00
2018-11-13T20:03:29.680Z,100.00
2018-11-13T20:05:59.542Z,100.00
2018-11-13T20:08:28.504Z,100.00
2018-11-13T20:10:57.550Z,100.00
2018-11-13T20:13:26.619Z,100.00
2018-11-13T20:15:55.773Z,100.00
2018-11-13T20:18:24.930Z,100.00
2018-11-13T20:20:54.014Z,100.00
2018-11-13T20:23:23.136Z,100.00
2018-11-13T20:25:52.239Z,100.00
2018-11-13T20:28:21.233Z,100.00
2018-11-13T20:30:50.365Z,100.00
2018-11-13T20:33:19.483Z,100.00
2018-11-13T20:35:48.531Z,100.00
2018-11-13T20:38:17.545Z,100.00
2018-11-13T20:40:46.693Z,100.00
2018-11-13T20:43:15.879Z,100.00
2018-11-13T20:45:44.853Z,100.00
2018-11-13T20:48:13.947Z,100.00
2018-11-13T20:50:43.119Z,100.00
2018-11-13T20:53:12.142Z,100.00
2018-11-13T20:55:41.553Z,100.00
2018-11-13T20:58:10.638Z,100.00
2018-11-13T21:00:41.085Z,100.00
2018-11-13T21:03:11.050Z,100.00
2018-11-13T21:05:40.140Z,100.00
2018-11-13T21:08:09.236Z,100.00
2018-11-13T21:10:39.924Z,100.00
2018-11-13T21:13:09.794Z,100.00
2018-11-13T21:15:38.816Z,100.00
2018-11-13T21:18:07.955Z,100.00
2018-11-13T21:20:37.658Z,100.00
2018-11-13T21:23:11.116Z,100.00
2018-11-13T21:25:43.514Z,100.00
2018-11-13T21:28:18.964Z,100.00
2018-11-13T21:30:48.178Z,100.00
2018-11-13T21:33:17.230Z,100.00
2018-11-13T21:35:46.305Z,100.00
2018-11-13T21:38:15.320Z,100.00
2018-11-13T21:40:44.306Z,100.00
2018-11-13T21:43:13.416Z,100.00
2018-11-13T21:45:42.477Z,100.00
2018-11-13T21:48:12.425Z,100.00
2018-11-13T21:50:41.550Z,100.00
2018-11-13T21:53:10.639Z,100.00
2018-11-13T21:55:39.738Z,100.00
2018-11-13T21:58:08.763Z,100.00
2018-11-13T22:00:37.823Z,100.00
2018-11-13T22:03:08.869Z,100.00
2018-11-13T22:05:38.390Z,100.00
2018-11-13T22:08:07.572Z,100.00
2018-11-13T22:10:36.628Z,100.00
2018-11-13T22:13:05.793Z,100.00
2018-11-13T22:15:34.766Z,100.00
2018-11-13T22:18:03.769Z,100.00
2018-11-13T22:20:32.828Z,100.00
2018-11-13T22:23:02.241Z,100.00
2018-11-13T22:25:31.276Z,100.00
2018-11-13T22:28:00.617Z,100.00
2018-11-13T22:30:31.820Z,100.00
2018-11-13T22:33:00.847Z,100.00
2018-11-13T22:35:30.166Z,100.00
2018-11-13T22:37:59.197Z,100.00
2018-11-13T22:40:29.350Z,100.00
2018-11-13T22:42:59.349Z,100.00
2018-11-13T22:45:29.293Z,100.00
2018-11-13T22:47:58.634Z,100.00
2018-11-13T22:50:29.120Z,100.00
2018-11-13T22:52:58.294Z,100.00
2018-11-13T22:55:27.262Z,100.00
2018-11-13T22:57:57.325Z,100.00
2018-11-13T23:00:48.594Z,100.00
2018-11-13T23:03:18.497Z,100.00
2018-11-13T23:05:48.381Z,100.00
2018-11-13T23:08:18.792Z,100.00
2018-11-13T23:10:48.973Z,100.00
2018-11-13T23:13:18.599Z,100.00
2018-11-13T23:15:47.626Z,100.00
2018-11-13T23:18:16.701Z,100.00
2018-11-13T23:20:45.689Z,100.00
2018-11-13T23:23:14.733Z,100.00
2018-11-13T23:25:44.954Z,100.00
2018-11-13T23:28:14.003Z,100.00
2018-11-13T23:30:43.277Z,100.00
2018-11-13T23:33:12.333Z,100.00
2018-11-13T23:35:41.401Z,100.00
2018-11-13T23:38:10.448Z,100.00
2018-11-13T23:40:39.497Z,100.00
2018-11-13T23:43:08.553Z,100.00
2018-11-13T23:45:37.579Z,100.00
2018-11-13T23:48:07.424Z,100.00
2018-11-13T23:50:36.433Z,100.00
2018-11-13T23:53:05.645Z,100.00
2018-11-13T23:55:34.704Z,100.00
2018-11-13T23:58:03.777Z,100.00
